sensor_id;sensor_type;location;lat;lon;timestamp;pressure;altitude;pressure_sealevel;temperature;humidity
19086;BME280;9675;51.538;6.728;2022-09-06T00:00:03;101189.03;;;26.47;45.14
19086;BME280;9675;51.538;6.728;2022-09-06T00:02:34;101197.84;;;26.46;45.04
19086;BME280;9675;51.538;6.728;2022-09-06T00:05:02;101202.25;;;26.44;45.26
19086;BME280;9675;51.538;6.728;2022-09-06T00:07:30;101203.16;;;26.40;45.40
19086;BME280;9675;51.538;6.728;2022-09-06T00:09:57;101203.22;;;26.37;45.22
19086;BME280;9675;51.538;6.728;2022-09-06T00:12:25;101197.06;;;26.34;45.34
19086;BME280;9675;51.538;6.728;2022-09-06T00:14:52;101197.97;;;26.31;45.70
19086;BME280;9675;51.538;6.728;2022-09-06T00:17:20;101201.50;;;26.27;45.72
19086;BME280;9675;51.538;6.728;2022-09-06T00:19:48;101202.44;;;26.25;45.68
19086;BME280;9675;51.538;6.728;2022-09-06T00:22:15;101196.28;;;26.21;45.87
19086;BME280;9675;51.538;6.728;2022-09-06T00:24:43;101204.22;;;26.18;45.98
19086;BME280;9675;51.538;6.728;2022-09-06T00:27:10;101201.59;;;26.15;46.10
19086;BME280;9675;51.538;6.728;2022-09-06T00:29:38;101204.28;;;26.10;46.14
19086;BME280;9675;51.538;6.728;2022-09-06T00:32:05;101204.31;;;26.07;46.02
19086;BME280;9675;51.538;6.728;2022-09-06T00:34:34;101207.81;;;26.06;46.22
19086;BME280;9675;51.538;6.728;2022-09-06T00:37:02;101208.75;;;26.04;46.36
19086;BME280;9675;51.538;6.728;2022-09-06T00:39:29;101203.50;;;25.99;46.65
19086;BME280;9675;51.538;6.728;2022-09-06T00:41:56;101213.19;;;25.99;46.37
19086;BME280;9675;51.538;6.728;2022-09-06T00:44:23;101207.94;;;25.96;46.60
19086;BME280;9675;51.538;6.728;2022-09-06T00:46:53;101212.38;;;25.91;46.38
19086;BME280;9675;51.538;6.728;2022-09-06T00:49:26;101207.97;;;25.88;46.62
19086;BME280;9675;51.538;6.728;2022-09-06T00:51:59;101209.75;;;25.88;46.68
19086;BME280;9675;51.538;6.728;2022-09-06T00:54:28;101219.41;;;25.86;46.67
19086;BME280;9675;51.538;6.728;2022-09-06T00:56:57;101237.91;;;25.83;46.25
19086;BME280;9675;51.538;6.728;2022-09-06T00:59:24;101241.44;;;25.81;46.53
19086;BME280;9675;51.538;6.728;2022-09-06T01:01:52;101234.44;;;25.79;46.42
19086;BME280;9675;51.538;6.728;2022-09-06T01:04:19;101239.72;;;25.76;46.67
19086;BME280;9675;51.538;6.728;2022-09-06T01:07:01;101230.94;;;25.74;46.77
19086;BME280;9675;51.538;6.728;2022-09-06T01:09:50;101227.44;;;25.70;47.03
19086;BME280;9675;51.538;6.728;2022-09-06T01:12:37;101230.09;;;25.67;46.95
19086;BME280;9675;51.538;6.728;2022-09-06T01:15:22;101235.41;;;25.64;47.54
19086;BME280;9675;51.538;6.728;2022-09-06T01:18:08;101253.00;;;25.62;47.18
19086;BME280;9675;51.538;6.728;2022-09-06T01:21:01;101246.88;;;25.59;47.90
19086;BME280;9675;51.538;6.728;2022-09-06T01:24:18;101250.34;;;25.55;48.07
19086;BME280;9675;51.538;6.728;2022-09-06T01:30:06;101267.97;;;25.50;48.17
19086;BME280;9675;51.538;6.728;2022-09-06T01:32:46;101266.22;;;25.47;48.54
19086;BME280;9675;51.538;6.728;2022-09-06T01:35:26;101268.88;;;25.44;48.39
19086;BME280;9675;51.538;6.728;2022-09-06T01:37:54;101267.13;;;25.43;48.32
19086;BME280;9675;51.538;6.728;2022-09-06T01:40:22;101270.66;;;25.40;48.54
19086;BME280;9675;51.538;6.728;2022-09-06T01:42:51;101281.19;;;25.39;48.86
19086;BME280;9675;51.538;6.728;2022-09-06T01:45:26;101279.47;;;25.35;48.97
19086;BME280;9675;51.538;6.728;2022-09-06T01:48:08;101290.03;;;25.33;48.49
19086;BME280;9675;51.538;6.728;2022-09-06T01:51:04;101275.97;;;25.30;49.04
19086;BME280;9675;51.538;6.728;2022-09-06T01:56:51;101272.47;;;25.25;49.18
19086;BME280;9675;51.538;6.728;2022-09-06T01:59:39;101263.72;;;25.23;49.66
19086;BME280;9675;51.538;6.728;2022-09-06T02:02:17;101267.22;;;25.22;49.29
19086;BME280;9675;51.538;6.728;2022-09-06T02:04:51;101269.84;;;25.19;49.48
19086;BME280;9675;51.538;6.728;2022-09-06T02:07:26;101276.91;;;25.17;49.36
19086;BME280;9675;51.538;6.728;2022-09-06T02:10:04;101282.19;;;25.15;49.73
19086;BME280;9675;51.538;6.728;2022-09-06T02:12:38;101279.53;;;25.14;49.61
19086;BME280;9675;51.538;6.728;2022-09-06T02:15:10;101269.00;;;25.11;50.00
19086;BME280;9675;51.538;6.728;2022-09-06T02:17:49;101269.88;;;25.10;49.85
19086;BME280;9675;51.538;6.728;2022-09-06T02:20:23;101260.25;;;25.06;50.12
19086;BME280;9675;51.538;6.728;2022-09-06T02:22:55;101252.34;;;25.04;50.17
19086;BME280;9675;51.538;6.728;2022-09-06T02:25:28;101249.69;;;25.03;50.95
19086;BME280;9675;51.538;6.728;2022-09-06T02:27:58;101239.19;;;25.01;51.73
19086;BME280;9675;51.538;6.728;2022-09-06T02:30:25;101243.56;;;24.99;52.06
19086;BME280;9675;51.538;6.728;2022-09-06T02:33:00;101234.81;;;24.97;52.17
19086;BME280;9675;51.538;6.728;2022-09-06T02:35:29;101230.41;;;24.94;52.72
19086;BME280;9675;51.538;6.728;2022-09-06T02:37:56;101237.44;;;24.92;52.42
19086;BME280;9675;51.538;6.728;2022-09-06T02:40:24;101227.78;;;24.91;52.25
19086;BME280;9675;51.538;6.728;2022-09-06T02:42:51;101232.19;;;24.91;52.79
19086;BME280;9675;51.538;6.728;2022-09-06T02:45:18;101236.56;;;24.90;52.92
19086;BME280;9675;51.538;6.728;2022-09-06T02:47:45;101226.03;;;24.89;53.23
19086;BME280;9675;51.538;6.728;2022-09-06T02:50:14;101223.38;;;24.87;53.28
19086;BME280;9675;51.538;6.728;2022-09-06T02:52:41;101215.47;;;24.86;53.65
19086;BME280;9675;51.538;6.728;2022-09-06T02:55:08;101211.97;;;24.84;54.24
19086;BME280;9675;51.538;6.728;2022-09-06T02:57:35;101216.34;;;24.83;54.46
19086;BME280;9675;51.538;6.728;2022-09-06T03:00:04;101211.97;;;24.81;54.24
19086;BME280;9675;51.538;6.728;2022-09-06T03:02:31;101210.22;;;24.78;55.13
19086;BME280;9675;51.538;6.728;2022-09-06T03:04:58;101187.41;;;24.76;55.43
19086;BME280;9675;51.538;6.728;2022-09-06T03:07:26;101177.75;;;24.73;55.52
19086;BME280;9675;51.538;6.728;2022-09-06T03:09:53;101169.81;;;24.72;55.31
19086;BME280;9675;51.538;6.728;2022-09-06T03:12:21;101162.84;;;24.69;55.87
19086;BME280;9675;51.538;6.728;2022-09-06T03:14:48;101159.31;;;24.67;56.43
19086;BME280;9675;51.538;6.728;2022-09-06T03:17:15;101149.69;;;24.65;56.43
19086;BME280;9675;51.538;6.728;2022-09-06T03:19:43;101134.75;;;24.64;57.68
19086;BME280;9675;51.538;6.728;2022-09-06T03:22:11;101125.97;;;24.62;58.39
19086;BME280;9675;51.538;6.728;2022-09-06T03:24:39;101134.78;;;24.59;58.56
19086;BME280;9675;51.538;6.728;2022-09-06T03:27:06;101141.78;;;24.57;59.22
19086;BME280;9675;51.538;6.728;2022-09-06T03:29:33;101148.84;;;24.55;59.84
19086;BME280;9675;51.538;6.728;2022-09-06T03:32:01;101155.84;;;24.53;60.48
19086;BME280;9675;51.538;6.728;2022-09-06T03:34:28;101164.66;;;24.50;61.66
19086;BME280;9675;51.538;6.728;2022-09-06T03:36:55;101161.13;;;24.48;61.66
19086;BME280;9675;51.538;6.728;2022-09-06T03:39:22;101168.16;;;24.46;62.35
19086;BME280;9675;51.538;6.728;2022-09-06T03:41:51;101153.25;;;24.44;63.56
19086;BME280;9675;51.538;6.728;2022-09-06T03:44:18;101155.00;;;24.42;63.64
19086;BME280;9675;51.538;6.728;2022-09-06T03:46:45;101151.50;;;24.40;63.94
19086;BME280;9675;51.538;6.728;2022-09-06T03:49:12;101158.50;;;24.38;65.25
19086;BME280;9675;51.538;6.728;2022-09-06T03:51:39;101174.34;;;24.35;66.73
19086;BME280;9675;51.538;6.728;2022-09-06T03:54:06;101161.16;;;24.30;66.33
19086;BME280;9675;51.538;6.728;2022-09-06T03:56:33;101175.22;;;24.29;66.24
19086;BME280;9675;51.538;6.728;2022-09-06T03:59:02;101186.59;;;24.27;67.04
19086;BME280;9675;51.538;6.728;2022-09-06T04:01:29;101192.75;;;24.23;70.02
19086;BME280;9675;51.538;6.728;2022-09-06T04:03:56;101195.41;;;24.18;68.59
19086;BME280;9675;51.538;6.728;2022-09-06T04:06:23;101180.44;;;24.12;68.90
19086;BME280;9675;51.538;6.728;2022-09-06T04:08:50;101173.44;;;24.13;69.36
19086;BME280;9675;51.538;6.728;2022-09-06T04:11:17;101181.31;;;24.11;69.22
19086;BME280;9675;51.538;6.728;2022-09-06T04:13:45;101174.31;;;24.09;69.75
19086;BME280;9675;51.538;6.728;2022-09-06T04:16:13;101168.16;;;24.07;69.78
19086;BME280;9675;51.538;6.728;2022-09-06T04:18:42;101170.78;;;24.05;70.40
19086;BME280;9675;51.538;6.728;2022-09-06T04:21:09;101160.28;;;24.02;70.63
19086;BME280;9675;51.538;6.728;2022-09-06T04:23:36;101161.16;;;24.01;71.07
19086;BME280;9675;51.538;6.728;2022-09-06T04:26:04;101159.38;;;24.00;71.17
19086;BME280;9675;51.538;6.728;2022-09-06T04:28:31;101153.28;;;23.98;71.72
19086;BME280;9675;51.538;6.728;2022-09-06T04:31:00;101161.16;;;23.97;71.79
19086;BME280;9675;51.538;6.728;2022-09-06T04:33:31;101169.03;;;23.95;71.99
19086;BME280;9675;51.538;6.728;2022-09-06T04:36:02;101168.19;;;23.93;73.39
19086;BME280;9675;51.538;6.728;2022-09-06T04:38:34;101170.78;;;23.90;73.51
19086;BME280;9675;51.538;6.728;2022-09-06T04:41:01;101165.53;;;23.87;73.10
19086;BME280;9675;51.538;6.728;2022-09-06T04:43:28;101165.53;;;23.84;73.41
19086;BME280;9675;51.538;6.728;2022-09-06T04:45:55;101179.56;;;23.85;73.62
19086;BME280;9675;51.538;6.728;2022-09-06T04:48:29;101176.06;;;23.81;73.86
19086;BME280;9675;51.538;6.728;2022-09-06T04:50:56;101190.09;;;23.80;74.19
19086;BME280;9675;51.538;6.728;2022-09-06T04:53:23;101193.56;;;23.79;74.56
19086;BME280;9675;51.538;6.728;2022-09-06T04:55:50;101189.22;;;23.77;74.56
19086;BME280;9675;51.538;6.728;2022-09-06T04:58:18;101185.69;;;23.75;74.79
19086;BME280;9675;51.538;6.728;2022-09-06T05:00:45;101183.03;;;23.73;75.86
19086;BME280;9675;51.538;6.728;2022-09-06T05:03:12;101177.78;;;23.70;75.77
19086;BME280;9675;51.538;6.728;2022-09-06T05:05:40;101181.28;;;23.69;75.85
19086;BME280;9675;51.538;6.728;2022-09-06T05:08:08;101183.06;;;23.65;76.63
19086;BME280;9675;51.538;6.728;2022-09-06T05:10:35;101188.28;;;23.64;76.05
19086;BME280;9675;51.538;6.728;2022-09-06T05:13:02;101190.94;;;23.61;76.16
19086;BME280;9675;51.538;6.728;2022-09-06T05:15:29;101201.44;;;23.58;75.56
19086;BME280;9675;51.538;6.728;2022-09-06T05:18:01;101201.44;;;23.55;75.77
19086;BME280;9675;51.538;6.728;2022-09-06T05:20:29;101204.06;;;23.53;75.53
19086;BME280;9675;51.538;6.728;2022-09-06T05:22:58;101205.81;;;23.50;75.92
19086;BME280;9675;51.538;6.728;2022-09-06T05:25:25;101204.03;;;23.49;76.05
19086;BME280;9675;51.538;6.728;2022-09-06T05:27:52;101208.41;;;23.48;76.07
19086;BME280;9675;51.538;6.728;2022-09-06T05:30:19;101203.13;;;23.44;76.21
19086;BME280;9675;51.538;6.728;2022-09-06T05:32:46;101209.25;;;23.41;76.66
19086;BME280;9675;51.538;6.728;2022-09-06T05:35:13;101215.38;;;23.39;75.90
19086;BME280;9675;51.538;6.728;2022-09-06T05:37:40;101213.63;;;23.38;76.29
19086;BME280;9675;51.538;6.728;2022-09-06T05:40:10;101225.88;;;23.36;75.62
19086;BME280;9675;51.538;6.728;2022-09-06T05:42:37;101217.97;;;23.33;76.42
19086;BME280;9675;51.538;6.728;2022-09-06T05:45:06;101213.63;;;23.32;75.42
19086;BME280;9675;51.538;6.728;2022-09-06T05:47:34;101213.59;;;23.28;75.80
19086;BME280;9675;51.538;6.728;2022-09-06T05:50:02;101210.97;;;23.28;76.06
19086;BME280;9675;51.538;6.728;2022-09-06T05:52:31;101205.72;;;23.28;76.38
19086;BME280;9675;51.538;6.728;2022-09-06T05:54:59;101219.72;;;23.27;76.50
19086;BME280;9675;51.538;6.728;2022-09-06T05:57:28;101217.09;;;23.26;76.60
19086;BME280;9675;51.538;6.728;2022-09-06T05:59:58;101214.47;;;23.24;76.57
19086;BME280;9675;51.538;6.728;2022-09-06T06:02:25;101216.19;;;23.24;77.03
19086;BME280;9675;51.538;6.728;2022-09-06T06:04:52;101218.84;;;23.24;77.18
19086;BME280;9675;51.538;6.728;2022-09-06T06:07:20;101219.69;;;23.21;76.87
19086;BME280;9675;51.538;6.728;2022-09-06T06:09:47;101225.84;;;23.20;77.51
19086;BME280;9675;51.538;6.728;2022-09-06T06:12:14;101221.44;;;23.19;78.28
19086;BME280;9675;51.538;6.728;2022-09-06T06:14:43;101224.94;;;23.18;78.15
19086;BME280;9675;51.538;6.728;2022-09-06T06:17:10;101220.56;;;23.17;78.08
19086;BME280;9675;51.538;6.728;2022-09-06T06:19:37;101231.06;;;23.16;79.26
19086;BME280;9675;51.538;6.728;2022-09-06T06:22:05;101221.41;;;23.13;78.53
19086;BME280;9675;51.538;6.728;2022-09-06T06:24:32;101211.78;;;23.14;78.71
19086;BME280;9675;51.538;6.728;2022-09-06T06:26:59;101216.19;;;23.15;78.61
19086;BME280;9675;51.538;6.728;2022-09-06T06:29:26;101206.53;;;23.14;78.33
19086;BME280;9675;51.538;6.728;2022-09-06T06:31:54;101214.44;;;23.15;78.49
19086;BME280;9675;51.538;6.728;2022-09-06T06:34:21;101210.06;;;23.16;78.34
19086;BME280;9675;51.538;6.728;2022-09-06T06:36:48;101212.66;;;23.17;78.24
19086;BME280;9675;51.538;6.728;2022-09-06T06:39:15;101206.53;;;23.18;77.66
19086;BME280;9675;51.538;6.728;2022-09-06T06:41:42;101200.44;;;23.19;77.98
19086;BME280;9675;51.538;6.728;2022-09-06T06:44:10;101207.44;;;23.23;77.93
19086;BME280;9675;51.538;6.728;2022-09-06T06:46:37;101198.69;;;23.26;77.64
19086;BME280;9675;51.538;6.728;2022-09-06T06:49:07;101195.19;;;23.27;77.15
19086;BME280;9675;51.538;6.728;2022-09-06T06:51:35;101188.19;;;23.30;76.43
19086;BME280;9675;51.538;6.728;2022-09-06T06:54:03;101189.06;;;23.33;76.44
19086;BME280;9675;51.538;6.728;2022-09-06T06:56:33;101190.84;;;23.35;77.34
19086;BME280;9675;51.538;6.728;2022-09-06T06:59:03;101188.22;;;23.37;76.28
19086;BME280;9675;51.538;6.728;2022-09-06T07:01:33;101191.72;;;23.39;76.73
19086;BME280;9675;51.538;6.728;2022-09-06T07:04:02;101191.75;;;23.42;75.22
19086;BME280;9675;51.538;6.728;2022-09-06T07:06:45;101190.91;;;23.46;75.23
19086;BME280;9675;51.538;6.728;2022-09-06T07:09:12;101196.16;;;23.49;74.41
19086;BME280;9675;51.538;6.728;2022-09-06T07:11:39;101190.03;;;23.53;75.04
19086;BME280;9675;51.538;6.728;2022-09-06T07:14:06;101195.28;;;23.54;73.64
19086;BME280;9675;51.538;6.728;2022-09-06T07:16:34;101189.19;;;23.57;72.64
19086;BME280;9675;51.538;6.728;2022-09-06T07:19:01;101190.94;;;23.59;72.34
19086;BME280;9675;51.538;6.728;2022-09-06T07:21:28;101197.06;;;23.63;71.32
19086;BME280;9675;51.538;6.728;2022-09-06T07:23:57;101189.22;;;23.67;70.76
19086;BME280;9675;51.538;6.728;2022-09-06T07:26:26;101190.06;;;23.71;70.67
19086;BME280;9675;51.538;6.728;2022-09-06T07:28:54;101193.56;;;23.73;70.42
19086;BME280;9675;51.538;6.728;2022-09-06T07:31:23;101190.06;;;23.74;69.99
19086;BME280;9675;51.538;6.728;2022-09-06T07:33:50;101192.72;;;23.80;69.83
19086;BME280;9675;51.538;6.728;2022-09-06T07:36:17;101191.84;;;23.83;69.60
19086;BME280;9675;51.538;6.728;2022-09-06T07:38:48;101187.47;;;23.86;69.66
19086;BME280;9675;51.538;6.728;2022-09-06T07:41:20;101189.22;;;23.90;68.54
19086;BME280;9675;51.538;6.728;2022-09-06T07:43:52;101193.59;;;23.94;68.31
19086;BME280;9675;51.538;6.728;2022-09-06T07:46:21;101190.09;;;23.98;67.55
19086;BME280;9675;51.538;6.728;2022-09-06T07:48:49;101185.72;;;24.03;67.22
19086;BME280;9675;51.538;6.728;2022-09-06T07:51:19;101180.47;;;24.08;66.55
19086;BME280;9675;51.538;6.728;2022-09-06T07:53:49;101183.97;;;24.13;66.35
19086;BME280;9675;51.538;6.728;2022-09-06T07:56:20;101191.88;;;24.21;66.06
19086;BME280;9675;51.538;6.728;2022-09-06T07:58:49;101190.13;;;24.26;65.15
19086;BME280;9675;51.538;6.728;2022-09-06T08:01:28;101192.75;;;24.32;65.09
19086;BME280;9675;51.538;6.728;2022-09-06T08:03:56;101189.22;;;24.37;64.63
19086;BME280;9675;51.538;6.728;2022-09-06T08:06:25;101193.59;;;24.46;64.24
19086;BME280;9675;51.538;6.728;2022-09-06T08:08:53;101193.59;;;24.52;63.26
19086;BME280;9675;51.538;6.728;2022-09-06T08:11:24;101193.59;;;24.58;62.52
19086;BME280;9675;51.538;6.728;2022-09-06T08:13:53;101197.09;;;24.63;61.83
19086;BME280;9675;51.538;6.728;2022-09-06T08:16:21;101196.19;;;24.69;60.78
19086;BME280;9675;51.538;6.728;2022-09-06T08:18:50;101191.78;;;24.74;60.60
19086;BME280;9675;51.538;6.728;2022-09-06T08:21:18;101197.06;;;24.81;60.00
19086;BME280;9675;51.538;6.728;2022-09-06T08:23:50;101194.41;;;24.89;59.74
19086;BME280;9675;51.538;6.728;2022-09-06T08:26:18;101197.00;;;24.98;59.68
19086;BME280;9675;51.538;6.728;2022-09-06T08:28:52;101192.59;;;25.06;59.37
19086;BME280;9675;51.538;6.728;2022-09-06T08:31:20;101193.47;;;25.13;58.21
19086;BME280;9675;51.538;6.728;2022-09-06T08:33:47;101188.13;;;25.20;57.71
19086;BME280;9675;51.538;6.728;2022-09-06T08:36:15;101194.25;;;25.27;57.27
19086;BME280;9675;51.538;6.728;2022-09-06T08:38:42;101188.09;;;25.31;56.66
19086;BME280;9675;51.538;6.728;2022-09-06T08:41:22;101189.81;;;25.38;56.14
19086;BME280;9675;51.538;6.728;2022-09-06T08:43:54;101188.00;;;25.49;56.24
19086;BME280;9675;51.538;6.728;2022-09-06T08:46:26;101191.47;;;25.54;56.13
19086;BME280;9675;51.538;6.728;2022-09-06T08:48:57;101181.78;;;25.61;55.99
19086;BME280;9675;51.538;6.728;2022-09-06T08:51:51;101193.13;;;25.70;55.88
19086;BME280;9675;51.538;6.728;2022-09-06T08:54:28;101188.69;;;25.80;55.65
19086;BME280;9675;51.538;6.728;2022-09-06T08:57:08;101187.75;;;25.87;55.64
19086;BME280;9675;51.538;6.728;2022-09-06T08:59:40;101189.47;;;25.94;55.73
19086;BME280;9675;51.538;6.728;2022-09-06T09:02:15;101180.59;;;26.03;55.20
19086;BME280;9675;51.538;6.728;2022-09-06T09:04:46;101184.91;;;26.11;54.96
19086;BME280;9675;51.538;6.728;2022-09-06T09:07:37;101179.56;;;26.19;54.62
19086;BME280;9675;51.538;6.728;2022-09-06T09:10:18;101178.66;;;26.26;54.66
19086;BME280;9675;51.538;6.728;2022-09-06T09:12:48;101175.06;;;26.33;54.45
19086;BME280;9675;51.538;6.728;2022-09-06T09:15:19;101185.56;;;26.42;53.97
19086;BME280;9675;51.538;6.728;2022-09-06T09:17:50;101174.88;;;26.51;53.97
19086;BME280;9675;51.538;6.728;2022-09-06T09:20:18;101175.66;;;26.61;53.49
19086;BME280;9675;51.538;6.728;2022-09-06T09:22:46;101172.06;;;26.68;53.16
19086;BME280;9675;51.538;6.728;2022-09-06T09:25:20;101169.31;;;26.76;52.78
19086;BME280;9675;51.538;6.728;2022-09-06T09:27:51;101170.09;;;26.85;52.74
19086;BME280;9675;51.538;6.728;2022-09-06T09:30:25;101169.16;;;26.94;52.17
19086;BME280;9675;51.538;6.728;2022-09-06T09:32:52;101154.06;;;27.02;51.69
19086;BME280;9675;51.538;6.728;2022-09-06T09:35:30;101150.38;;;27.14;51.41
19086;BME280;9675;51.538;6.728;2022-09-06T09:38:02;101149.38;;;27.21;50.98
19086;BME280;9675;51.538;6.728;2022-09-06T09:40:36;101143.94;;;27.31;50.39
19086;BME280;9675;51.538;6.728;2022-09-06T09:43:19;101149.13;;;27.40;49.73
19086;BME280;9675;51.538;6.728;2022-09-06T09:46:14;101142.84;;;27.51;49.46
19086;BME280;9675;51.538;6.728;2022-09-06T09:48:59;101142.66;;;27.61;49.05
19086;BME280;9675;51.538;6.728;2022-09-06T09:51:29;101138.09;;;27.71;49.00
19086;BME280;9675;51.538;6.728;2022-09-06T09:53:58;101132.72;;;27.77;49.10
19086;BME280;9675;51.538;6.728;2022-09-06T09:56:32;101141.31;;;27.88;48.31
19086;BME280;9675;51.538;6.728;2022-09-06T09:59:02;101142.09;;;27.96;48.92
19086;BME280;9675;51.538;6.728;2022-09-06T10:01:33;101134.84;;;28.06;48.63
19086;BME280;9675;51.538;6.728;2022-09-06T10:04:05;101140.06;;;28.13;48.02
19086;BME280;9675;51.538;6.728;2022-09-06T10:06:33;101133.69;;;28.23;47.77
19086;BME280;9675;51.538;6.728;2022-09-06T10:09:14;101129.03;;;28.35;48.34
19086;BME280;9675;51.538;6.728;2022-09-06T10:11:54;101124.41;;;28.46;47.85
19086;BME280;9675;51.538;6.728;2022-09-06T10:14:30;101119.78;;;28.57;47.65
19086;BME280;9675;51.538;6.728;2022-09-06T10:16:59;101104.53;;;28.68;47.62
19086;BME280;9675;51.538;6.728;2022-09-06T10:19:39;101106.97;;;28.80;47.33
19086;BME280;9675;51.538;6.728;2022-09-06T10:22:27;101126.09;;;28.96;46.70
19086;BME280;9675;51.538;6.728;2022-09-06T10:25:38;101123.97;;;29.11;46.11
19086;BME280;9675;51.538;6.728;2022-09-06T10:28:40;101128.06;;;29.26;46.30
19086;BME280;9675;51.538;6.728;2022-09-06T10:31:41;101135.84;;;29.35;46.09
19086;BME280;9675;51.538;6.728;2022-09-06T10:34:53;101121.47;;;29.44;46.18
19086;BME280;9675;51.538;6.728;2022-09-06T10:37:48;101116.78;;;29.55;45.75
19086;BME280;9675;51.538;6.728;2022-09-06T10:40:31;101116.50;;;29.66;45.21
19086;BME280;9675;51.538;6.728;2022-09-06T10:43:00;101114.38;;;29.80;45.01
19086;BME280;9675;51.538;6.728;2022-09-06T10:45:45;101122.09;;;29.92;44.69
19086;BME280;9675;51.538;6.728;2022-09-06T10:48:23;101120.16;;;29.98;44.68
19086;BME280;9675;51.538;6.728;2022-09-06T10:50:57;101120.75;;;30.10;44.39
19086;BME280;9675;51.538;6.728;2022-09-06T10:53:42;101112.50;;;30.20;43.79
19086;BME280;9675;51.538;6.728;2022-09-06T10:56:17;101105.88;;;30.35;43.53
19086;BME280;9675;51.538;6.728;2022-09-06T10:58:56;101105.50;;;30.49;43.00
19086;BME280;9675;51.538;6.728;2022-09-06T11:01:34;101108.59;;;30.64;43.37
19086;BME280;9675;51.538;6.728;2022-09-06T11:04:08;101108.31;;;30.73;43.00
19086;BME280;9675;51.538;6.728;2022-09-06T11:06:43;101112.47;;;30.83;42.68
19086;BME280;9675;51.538;6.728;2022-09-06T11:09:21;101114.75;;;30.96;42.39
19086;BME280;9675;51.538;6.728;2022-09-06T11:12:04;101116.19;;;31.09;42.44
19086;BME280;9675;51.538;6.728;2022-09-06T11:14:34;101115.78;;;31.21;41.84
19086;BME280;9675;51.538;6.728;2022-09-06T11:17:09;101113.69;;;31.31;41.25
19086;BME280;9675;51.538;6.728;2022-09-06T11:19:45;101109.91;;;31.39;41.23
19086;BME280;9675;51.538;6.728;2022-09-06T11:22:51;101108.59;;;31.51;41.16
19086;BME280;9675;51.538;6.728;2022-09-06T11:25:54;101113.53;;;31.64;40.63
19086;BME280;9675;51.538;6.728;2022-09-06T11:28:33;101119.38;;;31.76;40.40
19086;BME280;9675;51.538;6.728;2022-09-06T11:31:04;101114.69;;;31.82;40.90
19086;BME280;9675;51.538;6.728;2022-09-06T11:33:33;101117.97;;;31.90;40.36
19086;BME280;9675;51.538;6.728;2022-09-06T11:36:28;101127.44;;;31.99;40.25
19086;BME280;9675;51.538;6.728;2022-09-06T11:39:00;101116.47;;;32.08;39.80
19086;BME280;9675;51.538;6.728;2022-09-06T11:41:31;101109.00;;;32.19;39.53
19086;BME280;9675;51.538;6.728;2022-09-06T11:44:00;101117.47;;;32.30;39.82
19086;BME280;9675;51.538;6.728;2022-09-06T11:46:59;101111.03;;;32.37;39.18
19086;BME280;9675;51.538;6.728;2022-09-06T11:49:33;101113.22;;;32.49;39.00
19086;BME280;9675;51.538;6.728;2022-09-06T11:55:10;101114.34;;;32.69;37.59
19086;BME280;9675;51.538;6.728;2022-09-06T11:57:40;101106.91;;;32.77;37.65
19086;BME280;9675;51.538;6.728;2022-09-06T12:00:19;101109.09;;;32.89;38.10
19086;BME280;9675;51.538;6.728;2022-09-06T12:02:49;101102.59;;;32.96;37.93
19086;BME280;9675;51.538;6.728;2022-09-06T12:05:24;101106.72;;;33.05;38.23
19086;BME280;9675;51.538;6.728;2022-09-06T12:08:29;101102.69;;;33.16;37.93
19086;BME280;9675;51.538;6.728;2022-09-06T12:11:20;101102.34;;;33.25;37.83
19086;BME280;9675;51.538;6.728;2022-09-06T12:13:53;101095.72;;;33.36;37.79
19086;BME280;9675;51.538;6.728;2022-09-06T12:16:22;101095.63;;;33.37;37.69
19086;BME280;9675;51.538;6.728;2022-09-06T12:18:59;101098.97;;;33.42;36.84
19086;BME280;9675;51.538;6.728;2022-09-06T12:21:43;101102.16;;;33.52;37.56
19086;BME280;9675;51.538;6.728;2022-09-06T12:24:57;101097.22;;;33.63;37.09
19086;BME280;9675;51.538;6.728;2022-09-06T12:27:31;101098.81;;;33.68;36.81
19086;BME280;9675;51.538;6.728;2022-09-06T12:30:02;101093.16;;;33.76;37.04
19086;BME280;9675;51.538;6.728;2022-09-06T12:32:35;101091.16;;;33.81;37.00
19086;BME280;9675;51.538;6.728;2022-09-06T12:35:09;101106.13;;;33.85;37.07
19086;BME280;9675;51.538;6.728;2022-09-06T12:37:53;101094.28;;;33.91;36.96
19086;BME280;9675;51.538;6.728;2022-09-06T12:40:23;101088.75;;;33.95;36.16
19086;BME280;9675;51.538;6.728;2022-09-06T12:42:53;101091.41;;;33.95;36.47
19086;BME280;9675;51.538;6.728;2022-09-06T12:45:22;101088.03;;;33.92;36.00
19086;BME280;9675;51.538;6.728;2022-09-06T12:48:05;101087.81;;;33.96;36.38
19086;BME280;9675;51.538;6.728;2022-09-06T12:50:33;101086.63;;;34.03;36.67
19086;BME280;9675;51.538;6.728;2022-09-06T12:53:06;101081.06;;;34.08;36.41
19086;BME280;9675;51.538;6.728;2022-09-06T12:55:42;101064.00;;;34.10;36.52
19086;BME280;9675;51.538;6.728;2022-09-06T12:58:11;101072.69;;;34.15;35.84
19086;BME280;9675;51.538;6.728;2022-09-06T13:00:41;101058.16;;;34.23;36.51
19086;BME280;9675;51.538;6.728;2022-09-06T13:03:24;101065.91;;;34.29;36.32
19086;BME280;9675;51.538;6.728;2022-09-06T13:05:54;101062.16;;;34.33;36.19
19086;BME280;9675;51.538;6.728;2022-09-06T13:08:33;101063.09;;;34.32;35.43
19086;BME280;9675;51.538;6.728;2022-09-06T13:11:06;101051.25;;;34.37;35.70
19086;BME280;9675;51.538;6.728;2022-09-06T13:13:45;101050.09;;;34.43;35.88
19086;BME280;9675;51.538;6.728;2022-09-06T13:16:19;101055.38;;;34.44;36.01
19086;BME280;9675;51.538;6.728;2022-09-06T13:18:47;101049.94;;;34.46;35.76
19086;BME280;9675;51.538;6.728;2022-09-06T13:21:27;101056.16;;;34.46;36.06
19086;BME280;9675;51.538;6.728;2022-09-06T13:23:56;101054.88;;;34.55;35.93
19086;BME280;9675;51.538;6.728;2022-09-06T13:26:35;101053.81;;;34.59;35.55
19086;BME280;9675;51.538;6.728;2022-09-06T13:29:21;101042.94;;;34.62;35.78
19086;BME280;9675;51.538;6.728;2022-09-06T13:31:50;101043.09;;;34.59;35.33
19086;BME280;9675;51.538;6.728;2022-09-06T13:34:21;101042.06;;;34.62;35.54
19086;BME280;9675;51.538;6.728;2022-09-06T13:36:51;101046.50;;;34.63;35.32